sensor_id;sensor_type;location;lat;lon;timestamp;temperature;humidity
10417;DHT22;62605;49.432;8.680;2023-08-01T03:49:54;17.30;99.90
10417;DHT22;62605;49.432;8.680;2023-08-01T03:52:53;17.30;99.90
10417;DHT22;62605;49.432;8.680;2023-08-01T03:58:45;17.20;99.90
10417;DHT22;62605;49.432;8.680;2023-08-01T03:59:15;17.30;99.90
10417;DHT22;62605;49.432;8.680;2023-08-01T04:08:18;17.30;99.90
10417;DHT22;62605;49.432;8.680;2023-08-01T04:14:04;17.30;99.90
10417;DHT22;62605;49.432;8.680;2023-08-01T04:16:37;17.30;99.90
10417;DHT22;62605;49.432;8.680;2023-08-01T04:19:10;17.30;99.90
10417;DHT22;62605;49.432;8.680;2023-08-01T04:52:29;17.20;99.90
10417;DHT22;62605;49.432;8.680;2023-08-01T04:54:56;17.20;99.90
10417;DHT22;62605;49.432;8.680;2023-08-01T05:09:15;17.20;99.90
10417;DHT22;62605;49.432;8.680;2023-08-01T05:11:42;17.20;99.90
10417;DHT22;62605;49.432;8.680;2023-08-01T05:14:12;17.20;99.90
10417;DHT22;62605;49.432;8.680;2023-08-01T05:16:39;17.20;99.90
10417;DHT22;62605;49.432;8.680;2023-08-01T05:19:09;17.20;99.90
10417;DHT22;62605;49.432;8.680;2023-08-01T05:21:36;17.20;99.90
10417;DHT22;62605;49.432;8.680;2023-08-01T05:24:06;17.20;99.90
10417;DHT22;62605;49.432;8.680;2023-08-01T05:26:35;17.10;99.90
10417;DHT22;62605;49.432;8.680;2023-08-01T05:29:02;17.10;99.90
10417;DHT22;62605;49.432;8.680;2023-08-01T05:31:29;17.10;99.90
10417;DHT22;62605;49.432;8.680;2023-08-01T05:33:56;17.10;99.90
10417;DHT22;62605;49.432;8.680;2023-08-01T05:36:24;17.10;99.90
10417;DHT22;62605;49.432;8.680;2023-08-01T05:38:51;17.10;99.90
10417;DHT22;62605;49.432;8.680;2023-08-01T05:41:18;17.10;99.90
10417;DHT22;62605;49.432;8.680;2023-08-01T05:43:48;17.20;99.90
10417;DHT22;62605;49.432;8.680;2023-08-01T05:46:16;17.20;99.90
10417;DHT22;62605;49.432;8.680;2023-08-01T05:48:43;17.10;99.90
10417;DHT22;62605;49.432;8.680;2023-08-01T05:51:10;17.10;99.90
10417;DHT22;62605;49.432;8.680;2023-08-01T05:53:37;17.10;99.90
10417;DHT22;62605;49.432;8.680;2023-08-01T05:56:04;17.00;99.90
10417;DHT22;62605;49.432;8.680;2023-08-01T05:58:31;16.90;99.90
10417;DHT22;62605;49.432;8.680;2023-08-01T06:01:03;16.90;99.90
10417;DHT22;62605;49.432;8.680;2023-08-01T06:03:30;16.80;99.90
10417;DHT22;62605;49.432;8.680;2023-08-01T06:05:57;16.80;99.90
10417;DHT22;62605;49.432;8.680;2023-08-01T06:08:24;16.80;99.90
10417;DHT22;62605;49.432;8.680;2023-08-01T06:10:51;16.70;99.90
10417;DHT22;62605;49.432;8.680;2023-08-01T06:13:18;16.70;99.90
10417;DHT22;62605;49.432;8.680;2023-08-01T06:15:49;16.70;99.90
10417;DHT22;62605;49.432;8.680;2023-08-01T06:18:17;16.70;99.90
10417;DHT22;62605;49.432;8.680;2023-08-01T06:20:44;16.60;99.90
10417;DHT22;62605;49.432;8.680;2023-08-01T06:23:11;16.70;99.90
10417;DHT22;62605;49.432;8.680;2023-08-01T06:25:38;16.60;99.90
10417;DHT22;62605;49.432;8.680;2023-08-01T06:28:08;16.60;99.90
10417;DHT22;62605;49.432;8.680;2023-08-01T06:30:35;16.70;99.90
10417;DHT22;62605;49.432;8.680;2023-08-01T06:33:03;16.60;99.90
10417;DHT22;62605;49.432;8.680;2023-08-01T06:35:32;16.60;99.90
10417;DHT22;62605;49.432;8.680;2023-08-01T06:38:00;16.70;99.90
10417;DHT22;62605;49.432;8.680;2023-08-01T06:40:27;16.70;99.90
10417;DHT22;62605;49.432;8.680;2023-08-01T06:42:54;16.70;99.90
10417;DHT22;62605;49.432;8.680;2023-08-01T06:45:21;16.70;99.90
10417;DHT22;62605;49.432;8.680;2023-08-01T06:47:57;16.70;99.90
10417;DHT22;62605;49.432;8.680;2023-08-01T06:50:24;16.70;99.90
10417;DHT22;62605;49.432;8.680;2023-08-01T06:52:54;16.70;99.90
10417;DHT22;62605;49.432;8.680;2023-08-01T06:55:21;16.70;99.90
10417;DHT22;62605;49.432;8.680;2023-08-01T06:57:48;16.80;99.90
10417;DHT22;62605;49.432;8.680;2023-08-01T07:00:15;16.70;99.90
10417;DHT22;62605;49.432;8.680;2023-08-01T07:02:42;16.70;99.90
10417;DHT22;62605;49.432;8.680;2023-08-01T07:05:09;16.80;99.90
10417;DHT22;62605;49.432;8.680;2023-08-01T07:07:36;16.80;99.90
10417;DHT22;62605;49.432;8.680;2023-08-01T07:10:06;16.80;99.90
10417;DHT22;62605;49.432;8.680;2023-08-01T07:12:33;16.80;99.90
10417;DHT22;62605;49.432;8.680;2023-08-01T07:15:01;16.80;99.90
10417;DHT22;62605;49.432;8.680;2023-08-01T07:17:30;16.80;99.90
10417;DHT22;62605;49.432;8.680;2023-08-01T07:20:00;16.80;99.90
10417;DHT22;62605;49.432;8.680;2023-08-01T07:22:27;16.90;99.90
10417;DHT22;62605;49.432;8.680;2023-08-01T07:24:54;16.90;99.90
10417;DHT22;62605;49.432;8.680;2023-08-01T07:27:22;16.90;99.90
10417;DHT22;62605;49.432;8.680;2023-08-01T07:29:51;16.90;99.90
10417;DHT22;62605;49.432;8.680;2023-08-01T07:32:21;16.90;99.90
10417;DHT22;62605;49.432;8.680;2023-08-01T07:34:49;17.00;99.90
10417;DHT22;62605;49.432;8.680;2023-08-01T07:37:19;17.00;99.90
10417;DHT22;62605;49.432;8.680;2023-08-01T07:39:46;17.10;99.90
10417;DHT22;62605;49.432;8.680;2023-08-01T07:42:13;17.10;99.90
10417;DHT22;62605;49.432;8.680;2023-08-01T07:44:41;17.10;99.90
10417;DHT22;62605;49.432;8.680;2023-08-01T07:47:08;17.20;99.90
10417;DHT22;62605;49.432;8.680;2023-08-01T07:49:35;17.20;99.90
10417;DHT22;62605;49.432;8.680;2023-08-01T07:52:02;17.30;99.90
10417;DHT22;62605;49.432;8.680;2023-08-01T07:54:32;17.40;99.90
10417;DHT22;62605;49.432;8.680;2023-08-01T07:56:59;17.40;99.90
10417;DHT22;62605;49.432;8.680;2023-08-01T07:59:28;17.40;99.90
10417;DHT22;62605;49.432;8.680;2023-08-01T08:01:56;17.40;99.90
10417;DHT22;62605;49.432;8.680;2023-08-01T08:04:24;17.40;99.90
10417;DHT22;62605;49.432;8.680;2023-08-01T08:06:51;17.50;99.90
10417;DHT22;62605;49.432;8.680;2023-08-01T08:09:20;17.50;99.90
10417;DHT22;62605;49.432;8.680;2023-08-01T08:11:48;17.50;99.90
10417;DHT22;62605;49.432;8.680;2023-08-01T08:14:18;17.50;99.90
10417;DHT22;62605;49.432;8.680;2023-08-01T08:16:49;17.60;99.90
10417;DHT22;62605;49.432;8.680;2023-08-01T08:19:21;17.60;99.90
10417;DHT22;62605;49.432;8.680;2023-08-01T08:21:50;17.80;99.90
10417;DHT22;62605;49.432;8.680;2023-08-01T08:24:18;17.90;99.90
10417;DHT22;62605;49.432;8.680;2023-08-01T08:26:48;17.90;99.90
10417;DHT22;62605;49.432;8.680;2023-08-01T08:29:15;17.80;99.90
10417;DHT22;62605;49.432;8.680;2023-08-01T08:31:42;17.80;99.90
10417;DHT22;62605;49.432;8.680;2023-08-01T08:34:09;17.90;99.90
10417;DHT22;62605;49.432;8.680;2023-08-01T08:36:38;18.10;99.90
10417;DHT22;62605;49.432;8.680;2023-08-01T08:39:07;18.20;99.90
10417;DHT22;62605;49.432;8.680;2023-08-01T08:41:38;18.20;99.90
10417;DHT22;62605;49.432;8.680;2023-08-01T08:44:07;18.30;99.90
10417;DHT22;62605;49.432;8.680;2023-08-01T08:46:41;18.20;99.90
10417;DHT22;62605;49.432;8.680;2023-08-01T08:49:11;18.20;99.90
10417;DHT22;62605;49.432;8.680;2023-08-01T08:51:44;18.30;99.90
10417;DHT22;62605;49.432;8.680;2023-08-01T08:54:13;18.30;99.90
10417;DHT22;62605;49.432;8.680;2023-08-01T08:56:43;18.30;99.90
10417;DHT22;62605;49.432;8.680;2023-08-01T08:59:10;18.30;99.90
10417;DHT22;62605;49.432;8.680;2023-08-01T09:01:38;18.20;99.90
10417;DHT22;62605;49.432;8.680;2023-08-01T09:04:10;18.10;99.90
10417;DHT22;62605;49.432;8.680;2023-08-01T09:06:43;18.10;99.90
10417;DHT22;62605;49.432;8.680;2023-08-01T09:09:13;18.10;99.90
10417;DHT22;62605;49.432;8.680;2023-08-01T09:11:46;17.90;99.90
10417;DHT22;62605;49.432;8.680;2023-08-01T09:14:13;17.50;99.90
10417;DHT22;62605;49.432;8.680;2023-08-01T09:16:44;17.70;99.90
10417;DHT22;62605;49.432;8.680;2023-08-01T09:19:16;18.10;99.90
10417;DHT22;62605;49.432;8.680;2023-08-01T09:21:46;18.50;99.90
10417;DHT22;62605;49.432;8.680;2023-08-01T09:24:16;18.90;99.90
10417;DHT22;62605;49.432;8.680;2023-08-01T09:26:44;19.00;99.90
10417;DHT22;62605;49.432;8.680;2023-08-01T09:29:12;18.90;99.90
10417;DHT22;62605;49.432;8.680;2023-08-01T09:31:42;19.10;99.90
10417;DHT22;62605;49.432;8.680;2023-08-01T09:34:28;19.00;99.90
10417;DHT22;62605;49.432;8.680;2023-08-01T09:37:00;18.90;99.90
10417;DHT22;62605;49.432;8.680;2023-08-01T09:39:27;19.00;99.90
10417;DHT22;62605;49.432;8.680;2023-08-01T09:41:55;19.20;99.90
10417;DHT22;62605;49.432;8.680;2023-08-01T09:44:26;19.20;99.90
10417;DHT22;62605;49.432;8.680;2023-08-01T09:46:58;19.50;99.90
10417;DHT22;62605;49.432;8.680;2023-08-01T09:49:27;19.60;99.90
10417;DHT22;62605;49.432;8.680;2023-08-01T09:51:54;19.70;99.90
10417;DHT22;62605;49.432;8.680;2023-08-01T09:54:23;19.90;99.90
10417;DHT22;62605;49.432;8.680;2023-08-01T09:56:54;20.30;99.90
10417;DHT22;62605;49.432;8.680;2023-08-01T09:59:26;20.00;99.90
10417;DHT22;62605;49.432;8.680;2023-08-01T10:01:54;19.80;99.90
10417;DHT22;62605;49.432;8.680;2023-08-01T10:04:24;20.10;99.90
10417;DHT22;62605;49.432;8.680;2023-08-01T10:06:58;20.70;99.90
10417;DHT22;62605;49.432;8.680;2023-08-01T10:09:30;20.60;99.90
10417;DHT22;62605;49.432;8.680;2023-08-01T10:11:58;20.80;99.90
10417;DHT22;62605;49.432;8.680;2023-08-01T10:14:26;20.80;99.90
10417;DHT22;62605;49.432;8.680;2023-08-01T10:16:57;20.90;99.90
10417;DHT22;62605;49.432;8.680;2023-08-01T10:19:26;20.90;99.90
10417;DHT22;62605;49.432;8.680;2023-08-01T10:21:53;21.60;99.90
10417;DHT22;62605;49.432;8.680;2023-08-01T10:24:21;21.40;99.90
10417;DHT22;62605;49.432;8.680;2023-08-01T10:26:51;21.10;99.90
10417;DHT22;62605;49.432;8.680;2023-08-01T10:29:19;20.70;99.90
10417;DHT22;62605;49.432;8.680;2023-08-01T10:31:54;20.50;99.90
10417;DHT22;62605;49.432;8.680;2023-08-01T10:34:21;20.30;99.90
10417;DHT22;62605;49.432;8.680;2023-08-01T10:36:55;20.20;99.90
10417;DHT22;62605;49.432;8.680;2023-08-01T10:39:25;20.30;99.90
10417;DHT22;62605;49.432;8.680;2023-08-01T10:42:03;20.60;99.90
10417;DHT22;62605;49.432;8.680;2023-08-01T10:44:31;20.70;99.90
10417;DHT22;62605;49.432;8.680;2023-08-01T10:47:02;20.90;99.90
10417;DHT22;62605;49.432;8.680;2023-08-01T10:49:35;21.10;99.90
10417;DHT22;62605;49.432;8.680;2023-08-01T10:52:03;21.40;99.90
10417;DHT22;62605;49.432;8.680;2023-08-01T10:54:30;21.40;99.90
10417;DHT22;62605;49.432;8.680;2023-08-01T10:57:04;21.30;99.90
10417;DHT22;62605;49.432;8.680;2023-08-01T10:59:32;21.40;99.90
10417;DHT22;62605;49.432;8.680;2023-08-01T11:02:01;21.60;99.90
10417;DHT22;62605;49.432;8.680;2023-08-01T11:04:28;21.40;99.90
10417;DHT22;62605;49.432;8.680;2023-08-01T11:06:57;21.60;99.90
10417;DHT22;62605;49.432;8.680;2023-08-01T11:09:26;22.00;99.90
10417;DHT22;62605;49.432;8.680;2023-08-01T11:11:54;22.30;99.90
10417;DHT22;62605;49.432;8.680;2023-08-01T11:14:26;22.20;99.90
10417;DHT22;62605;49.432;8.680;2023-08-01T11:16:57;22.30;99.90
10417;DHT22;62605;49.432;8.680;2023-08-01T11:19:26;22.30;99.90
10417;DHT22;62605;49.432;8.680;2023-08-01T11:21:54;22.10;99.90
10417;DHT22;62605;49.432;8.680;2023-08-01T11:24:23;21.60;99.90
10417;DHT22;62605;49.432;8.680;2023-08-01T11:26:54;21.40;99.90
10417;DHT22;62605;49.432;8.680;2023-08-01T11:29:22;20.70;99.90
10417;DHT22;62605;49.432;8.680;2023-08-01T11:31:53;20.80;99.90
10417;DHT22;62605;49.432;8.680;2023-08-01T11:34:22;21.00;99.90
10417;DHT22;62605;49.432;8.680;2023-08-01T11:36:52;21.20;99.90
10417;DHT22;62605;49.432;8.680;2023-08-01T11:39:21;21.20;99.90
10417;DHT22;62605;49.432;8.680;2023-08-01T11:41:49;20.80;99.90
10417;DHT22;62605;49.432;8.680;2023-08-01T11:44:24;20.80;99.90
10417;DHT22;62605;49.432;8.680;2023-08-01T11:46:53;21.20;99.90
10417;DHT22;62605;49.432;8.680;2023-08-01T11:49:20;21.60;99.90
10417;DHT22;62605;49.432;8.680;2023-08-01T11:51:47;21.50;99.90
10417;DHT22;62605;49.432;8.680;2023-08-01T11:54:14;22.00;99.90
10417;DHT22;62605;49.432;8.680;2023-08-01T11:56:43;22.70;99.90
10417;DHT22;62605;49.432;8.680;2023-08-01T11:59:11;22.80;99.90
10417;DHT22;62605;49.432;8.680;2023-08-01T12:01:40;22.60;99.90
10417;DHT22;62605;49.432;8.680;2023-08-01T12:04:11;22.40;99.90
10417;DHT22;62605;49.432;8.680;2023-08-01T12:06:38;22.30;99.90
10417;DHT22;62605;49.432;8.680;2023-08-01T12:09:09;22.20;99.90
10417;DHT22;62605;49.432;8.680;2023-08-01T12:11:40;22.60;99.90
10417;DHT22;62605;49.432;8.680;2023-08-01T12:14:13;22.40;99.90
10417;DHT22;62605;49.432;8.680;2023-08-01T12:16:42;22.30;99.90
10417;DHT22;62605;49.432;8.680;2023-08-01T12:19:17;22.00;99.90
10417;DHT22;62605;49.432;8.680;2023-08-01T12:21:45;22.40;99.90
10417;DHT22;62605;49.432;8.680;2023-08-01T12:24:15;22.70;99.90
10417;DHT22;62605;49.432;8.680;2023-08-01T12:26:42;22.20;99.90
10417;DHT22;62605;49.432;8.680;2023-08-01T12:29:09;21.90;99.90
10417;DHT22;62605;49.432;8.680;2023-08-01T12:31:36;21.80;99.90
10417;DHT22;62605;49.432;8.680;2023-08-01T12:34:07;21.60;99.90
10417;DHT22;62605;49.432;8.680;2023-08-01T12:36:34;21.30;99.90
10417;DHT22;62605;49.432;8.680;2023-08-01T12:39:01;21.50;99.90
10417;DHT22;62605;49.432;8.680;2023-08-01T12:41:28;22.10;99.90
10417;DHT22;62605;49.432;8.680;2023-08-01T12:43:56;22.40;99.90
10417;DHT22;62605;49.432;8.680;2023-08-01T12:46:22;22.50;99.90
10417;DHT22;62605;49.432;8.680;2023-08-01T12:48:50;22.70;99.90
10417;DHT22;62605;49.432;8.680;2023-08-01T12:51:18;22.60;99.90
10417;DHT22;62605;49.432;8.680;2023-08-01T12:53:45;23.00;99.90
10417;DHT22;62605;49.432;8.680;2023-08-01T12:56:12;23.50;99.90
10417;DHT22;62605;49.432;8.680;2023-08-01T12:58:39;23.70;99.90
10417;DHT22;62605;49.432;8.680;2023-08-01T13:01:06;23.80;99.90
10417;DHT22;62605;49.432;8.680;2023-08-01T13:03:34;24.10;99.90
10417;DHT22;62605;49.432;8.680;2023-08-01T13:06:04;23.90;99.90
10417;DHT22;62605;49.432;8.680;2023-08-01T13:08:32;23.60;99.90
10417;DHT22;62605;49.432;8.680;2023-08-01T13:10:59;23.40;99.90
10417;DHT22;62605;49.432;8.680;2023-08-01T13:13:26;22.90;99.90
10417;DHT22;62605;49.432;8.680;2023-08-01T13:15:53;22.80;99.90
10417;DHT22;62605;49.432;8.680;2023-08-01T13:18:20;22.60;99.90
10417;DHT22;62605;49.432;8.680;2023-08-01T13:20:47;22.70;99.90
10417;DHT22;62605;49.432;8.680;2023-08-01T13:23:16;22.50;99.90
10417;DHT22;62605;49.432;8.680;2023-08-01T13:25:48;22.50;99.90
10417;DHT22;62605;49.432;8.680;2023-08-01T13:28:15;22.50;99.90
10417;DHT22;62605;49.432;8.680;2023-08-01T13:30:45;22.30;99.90
10417;DHT22;62605;49.432;8.680;2023-08-01T13:33:12;22.60;99.90
10417;DHT22;62605;49.432;8.680;2023-08-01T13:35:42;22.70;99.90
10417;DHT22;62605;49.432;8.680;2023-08-01T13:38:09;22.40;99.90
10417;DHT22;62605;49.432;8.680;2023-08-01T13:40:38;22.20;99.90
10417;DHT22;62605;49.432;8.680;2023-08-01T13:43:06;22.20;99.90
10417;DHT22;62605;49.432;8.680;2023-08-01T13:45:34;21.90;99.90
10417;DHT22;62605;49.432;8.680;2023-08-01T13:48:01;22.00;99.90
10417;DHT22;62605;49.432;8.680;2023-08-01T13:50:29;22.20;99.90
10417;DHT22;62605;49.432;8.680;2023-08-01T13:52:56;22.30;99.90
10417;DHT22;62605;49.432;8.680;2023-08-01T13:55:23;22.30;99.90
10417;DHT22;62605;49.432;8.680;2023-08-01T13:57:54;22.50;99.90
10417;DHT22;62605;49.432;8.680;2023-08-01T14:00:23;22.70;99.90
10417;DHT22;62605;49.432;8.680;2023-08-01T14:02:50;23.00;99.90
10417;DHT22;62605;49.432;8.680;2023-08-01T14:05:18;23.60;99.90
10417;DHT22;62605;49.432;8.680;2023-08-01T14:07:48;23.50;99.90
10417;DHT22;62605;49.432;8.680;2023-08-01T14:10:19;23.50;99.90
10417;DHT22;62605;49.432;8.680;2023-08-01T14:12:47;23.70;99.90
10417;DHT22;62605;49.432;8.680;2023-08-01T14:15:17;23.70;99.90
10417;DHT22;62605;49.432;8.680;2023-08-01T14:17:45;24.20;99.90
10417;DHT22;62605;49.432;8.680;2023-08-01T14:20:12;24.50;99.90
10417;DHT22;62605;49.432;8.680;2023-08-01T14:22:41;24.20;99.90
10417;DHT22;62605;49.432;8.680;2023-08-01T14:25:09;24.10;99.90
10417;DHT22;62605;49.432;8.680;2023-08-01T14:27:36;24.10;99.90
10417;DHT22;62605;49.432;8.680;2023-08-01T14:30:04;23.90;99.90
10417;DHT22;62605;49.432;8.680;2023-08-01T14:32:32;24.20;99.90
10417;DHT22;62605;49.432;8.680;2023-08-01T14:35:00;24.10;99.90
10417;DHT22;62605;49.432;8.680;2023-08-01T14:37:27;24.00;99.90
10417;DHT22;62605;49.432;8.680;2023-08-01T14:39:58;23.30;99.90
10417;DHT22;62605;49.432;8.680;2023-08-01T14:42:25;23.40;99.90
10417;DHT22;62605;49.432;8.680;2023-08-01T14:44:55;23.10;99.90
10417;DHT22;62605;49.432;8.680;2023-08-01T14:47:23;23.50;99.90
10417;DHT22;62605;49.432;8.680;2023-08-01T14:49:50;24.00;99.90
10417;DHT22;62605;49.432;8.680;2023-08-01T14:52:19;24.30;99.90
10417;DHT22;62605;49.432;8.680;2023-08-01T14:54:47;24.10;99.90
10417;DHT22;62605;49.432;8.680;2023-08-01T14:57:17;24.80;99.90
10417;DHT22;62605;49.432;8.680;2023-08-01T14:59:44;25.10;99.90
10417;DHT22;62605;49.432;8.680;2023-08-01T15:02:11;24.70;99.90
10417;DHT22;62605;49.432;8.680;2023-08-01T15:04:38;24.30;99.90
10417;DHT22;62605;49.432;8.680;2023-08-01T15:07:05;23.90;99.90
10417;DHT22;62605;49.432;8.680;2023-08-01T15:09:34;23.50;99.90
10417;DHT22;62605;49.432;8.680;2023-08-01T15:12:02;23.50;99.90
10417;DHT22;62605;49.432;8.680;2023-08-01T15:14:29;24.00;99.90
10417;DHT22;62605;49.432;8.680;2023-08-01T15:16:57;24.30;99.90
10417;DHT22;62605;49.432;8.680;2023-08-01T15:19:24;24.50;99.90
10417;DHT22;62605;49.432;8.680;2023-08-01T15:21:55;24.00;99.90
10417;DHT22;62605;49.432;8.680;2023-08-01T15:24:23;23.90;99.90
10417;DHT22;62605;49.432;8.680;2023-08-01T15:26:52;23.50;99.90
10417;DHT22;62605;49.432;8.680;2023-08-01T15:29:19;23.40;99.90
10417;DHT22;62605;49.432;8.680;2023-08-01T15:31:46;23.20;99.90
10417;DHT22;62605;49.432;8.680;2023-08-01T15:34:13;23.00;99.90
10417;DHT22;62605;49.432;8.680;2023-08-01T15:36:46;22.80;99.90
10417;DHT22;62605;49.432;8.680;2023-08-01T15:39:13;22.80;99.90
10417;DHT22;62605;49.432;8.680;2023-08-01T15:41:41;22.70;99.90
10417;DHT22;62605;49.432;8.680;2023-08-01T15:44:13;22.70;99.90
10417;DHT22;62605;49.432;8.680;2023-08-01T15:46:43;22.70;99.90
10417;DHT22;62605;49.432;8.680;2023-08-01T15:49:10;22.60;99.90
10417;DHT22;62605;49.432;8.680;2023-08-01T15:51:37;22.50;99.90
10417;DHT22;62605;49.432;8.680;2023-08-01T15:54:06;22.40;99.90
10417;DHT22;62605;49.432;8.680;2023-08-01T15:56:33;22.30;99.90
10417;DHT22;62605;49.432;8.680;2023-08-01T15:59:01;22.30;99.90
10417;DHT22;62605;49.432;8.680;2023-08-01T16:01:32;22.20;99.90
10417;DHT22;62605;49.432;8.680;2023-08-01T16:03:59;22.10;99.90
10417;DHT22;62605;49.432;8.680;2023-08-01T16:06:30;22.00;99.90
10417;DHT22;62605;49.432;8.680;2023-08-01T16:08:57;22.00;99.90
10417;DHT22;62605;49.432;8.680;2023-08-01T16:11:24;22.00;99.90
10417;DHT22;62605;49.432;8.680;2023-08-01T16:13:51;21.90;99.90
10417;DHT22;62605;49.432;8.680;2023-08-01T16:16:18;21.90;99.90
10417;DHT22;62605;49.432;8.680;2023-08-01T16:18:47;21.90;99.90
10417;DHT22;62605;49.432;8.680;2023-08-01T16:21:16;21.80;99.90
10417;DHT22;62605;49.432;8.680;2023-08-01T16:23:43;21.70;99.90
10417;DHT22;62605;49.432;8.680;2023-08-01T16:26:10;21.70;99.90
10417;DHT22;62605;49.432;8.680;2023-08-01T16:28:38;21.70;99.90
10417;DHT22;62605;49.432;8.680;2023-08-01T16:31:09;21.60;99.90
10417;DHT22;62605;49.432;8.680;2023-08-01T16:33:36;21.50;99.90
10417;DHT22;62605;49.432;8.680;2023-08-01T16:36:05;21.50;99.90
10417;DHT22;62605;49.432;8.680;2023-08-01T16:38:34;21.10;99.90
10417;DHT22;62605;49.432;8.680;2023-08-01T16:41:04;20.80;99.90
10417;DHT22;62605;49.432;8.680;2023-08-01T16:43:32;20.60;99.90
10417;DHT22;62605;49.432;8.680;2023-08-01T16:45:59;20.30;99.90
10417;DHT22;62605;49.432;8.680;2023-08-01T16:48:28;20.00;99.90
10417;DHT22;62605;49.432;8.680;2023-08-01T16:50:58;19.70;99.90
10417;DHT22;62605;49.432;8.680;2023-08-01T16:53:27;19.60;99.90
10417;DHT22;62605;49.432;8.680;2023-08-01T16:55:54;19.30;99.90
10417;DHT22;62605;49.432;8.680;2023-08-01T16:58:28;18.70;99.90
10417;DHT22;62605;49.432;8.680;2023-08-01T17:00:55;18.70;99.90
10417;DHT22;62605;49.432;8.680;2023-08-01T17:03:23;18.60;99.90
10417;DHT22;62605;49.432;8.680;2023-08-01T17:05:53;18.50;99.90
10417;DHT22;62605;49.432;8.680;2023-08-01T17:08:20;18.90;99.90
10417;DHT22;62605;49.432;8.680;2023-08-01T17:10:52;19.80;99.90
10417;DHT22;62605;49.432;8.680;2023-08-01T17:13:19;20.60;99.90
10417;DHT22;62605;49.432;8.680;2023-08-01T17:15:49;21.00;99.90
10417;DHT22;62605;49.432;8.680;2023-08-01T17:18:16;21.20;99.90
10417;DHT22;62605;49.432;8.680;2023-08-01T17:20:45;22.50;99.90
10417;DHT22;62605;49.432;8.680;2023-08-01T17:23:17;22.60;99.90
10417;DHT22;62605;49.432;8.680;2023-08-01T17:25:45;23.40;99.90
10417;DHT22;62605;49.432;8.680;2023-08-01T17:28:16;22.20;99.90
10417;DHT22;62605;49.432;8.680;2023-08-01T17:30:43;21.10;99.90
10417;DHT22;62605;49.432;8.680;2023-08-01T17:33:10;20.60;99.90
10417;DHT22;62605;49.432;8.680;2023-08-01T17:35:37;20.20;99.90
10417;DHT22;62605;49.432;8.680;2023-08-01T17:38:04;20.00;99.90
10417;DHT22;62605;49.432;8.680;2023-08-01T17:40:31;19.50;99.90
10417;DHT22;62605;49.432;8.680;2023-08-01T17:43:00;19.50;99.90
10417;DHT22;62605;49.432;8.680;2023-08-01T17:45:29;19.40;99.90
10417;DHT22;62605;49.432;8.680;2023-08-01T17:47:56;19.40;99.90
10417;DHT22;62605;49.432;8.680;2023-08-01T17:50:24;19.40;99.90
10417;DHT22;62605;49.432;8.680;2023-08-01T17:52:51;19.20;99.90
10417;DHT22;62605;49.432;8.680;2023-08-01T17:55:18;18.40;99.90
10417;DHT22;62605;49.432;8.680;2023-08-01T17:57:45;17.80;99.90
10417;DHT22;62605;49.432;8.680;2023-08-01T18:00:13;17.80;99.90
10417;DHT22;62605;49.432;8.680;2023-08-01T18:02:41;17.50;99.90
10417;DHT22;62605;49.432;8.680;2023-08-01T18:05:09;17.50;99.90
10417;DHT22;62605;49.432;8.680;2023-08-01T18:07:35;17.50;99.90
10417;DHT22;62605;49.432;8.680;2023-08-01T18:10:03;17.40;99.90
10417;DHT22;62605;49.432;8.680;2023-08-01T18:12:31;17.40;99.90
10417;DHT22;62605;49.432;8.680;2023-08-01T18:14:58;17.40;99.90
10417;DHT22;62605;49.432;8.680;2023-08-01T18:17:25;17.40;99.90
10417;DHT22;62605;49.432;8.680;2023-08-01T18:19:53;17.40;99.90
10417;DHT22;62605;49.432;8.680;2023-08-01T18:22:20;17.40;99.90
10417;DHT22;62605;49.432;8.680;2023-08-01T18:24:47;17.40;99.90
10417;DHT22;62605;49.432;8.680;2023-08-01T18:27:17;17.40;99.90
10417;DHT22;62605;49.432;8.680;2023-08-01T18:29:45;17.30;99.90
10417;DHT22;62605;49.432;8.680;2023-08-01T18:32:12;17.40;99.90
10417;DHT22;62605;49.432;8.680;2023-08-01T18:34:39;17.40;99.90
10417;DHT22;62605;49.432;8.680;2023-08-01T18:37:11;17.40;99.90
10417;DHT22;62605;49.432;8.680;2023-08-01T18:39:40;17.40;99.90
10417;DHT22;62605;49.432;8.680;2023-08-01T18:42:07;17.40;99.90
10417;DHT22;62605;49.432;8.680;2023-08-01T18:44:34;17.40;99.90
10417;DHT22;62605;49.432;8.680;2023-08-01T18:47:02;17.40;99.90
10417;DHT22;62605;49.432;8.680;2023-08-01T18:49:35;17.50;99.90
10417;DHT22;62605;49.432;8.680;2023-08-01T18:52:03;17.50;99.90
10417;DHT22;62605;49.432;8.680;2023-08-01T18:54:34;17.50;99.90
10417;DHT22;62605;49.432;8.680;2023-08-01T18:57:03;17.40;99.90
10417;DHT22;62605;49.432;8.680;2023-08-01T18:59:31;17.50;99.90
10417;DHT22;62605;49.432;8.680;2023-08-01T19:01:59;17.50;99.90
10417;DHT22;62605;49.432;8.680;2023-08-01T19:04:29;17.50;99.90
10417;DHT22;62605;49.432;8.680;2023-08-01T19:06:56;17.60;99.90
10417;DHT22;62605;49.432;8.680;2023-08-01T19:09:23;17.50;99.90
10417;DHT22;62605;49.432;8.680;2023-08-01T19:11:51;17.40;99.90
10417;DHT22;62605;49.432;8.680;2023-08-01T19:14:18;17.40;99.90
10417;DHT22;62605;49.432;8.680;2023-08-01T19:16:45;17.40;99.90
10417;DHT22;62605;49.432;8.680;2023-08-01T19:19:14;17.40;99.90
10417;DHT22;62605;49.432;8.680;2023-08-01T19:21:42;17.40;99.90
10417;DHT22;62605;49.432;8.680;2023-08-01T19:24:09;17.30;99.90
10417;DHT22;62605;49.432;8.680;2023-08-01T19:26:36;17.40;99.90
10417;DHT22;62605;49.432;8.680;2023-08-01T19:29:04;17.30;99.90
10417;DHT22;62605;49.432;8.680;2023-08-01T19:31:31;17.30;99.90
10417;DHT22;62605;49.432;8.680;2023-08-01T19:34:01;17.20;99.90
10417;DHT22;62605;49.432;8.680;2023-08-01T19:36:28;17.20;99.90
10417;DHT22;62605;49.432;8.680;2023-08-01T19:38:58;17.20;99.90
10417;DHT22;62605;49.432;8.680;2023-08-01T19:41:25;17.10;99.90
10417;DHT22;62605;49.432;8.680;2023-08-01T19:43:54;17.10;99.90
10417;DHT22;62605;49.432;8.680;2023-08-01T19:46:28;17.10;99.90
10417;DHT22;62605;49.432;8.680;2023-08-01T19:48:55;17.00;99.90
10417;DHT22;62605;49.432;8.680;2023-08-01T19:51:24;17.00;99.90
10417;DHT22;62605;49.432;8.680;2023-08-01T19:53:52;17.00;99.90
10417;DHT22;62605;49.432;8.680;2023-08-01T19:56:19;17.00;99.90
10417;DHT22;62605;49.432;8.680;2023-08-01T19:58:46;17.00;99.90
10417;DHT22;62605;49.432;8.680;2023-08-01T20:01:14;17.00;99.90
10417;DHT22;62605;49.432;8.680;2023-08-01T20:03:44;16.90;99.90
10417;DHT22;62605;49.432;8.680;2023-08-01T20:06:11;16.80;99.90
10417;DHT22;62605;49.432;8.680;2023-08-01T20:08:38;16.80;99.90
10417;DHT22;62605;49.432;8.680;2023-08-01T20:11:07;16.70;99.90
10417;DHT22;62605;49.432;8.680;2023-08-01T20:13:36;16.60;99.90
10417;DHT22;62605;49.432;8.680;2023-08-01T20:16:03;16.60;99.90
10417;DHT22;62605;49.432;8.680;2023-08-01T20:18:31;16.60;99.90
10417;DHT22;62605;49.432;8.680;2023-08-01T20:21:02;16.50;99.90